sensor_id;sensor_type;location;lat;lon;timestamp;P1;durP1;ratioP1;P2;durP2;ratioP2
35897;SDS011;21997;47.118;15.346;2023-05-10T00:00:56;4.73;;;2.87;;
35897;SDS011;21997;47.118;15.346;2023-05-10T00:03:22;3.00;;;2.80;;
35897;SDS011;21997;47.118;15.346;2023-05-10T00:05:47;5.07;;;3.10;;
35897;SDS011;21997;47.118;15.346;2023-05-10T00:08:13;3.87;;;3.40;;
35897;SDS011;21997;47.118;15.346;2023-05-10T00:10:38;5.33;;;3.50;;
35897;SDS011;21997;47.118;15.346;2023-05-10T00:13:03;3.83;;;3.23;;
35897;SDS011;21997;47.118;15.346;2023-05-10T00:15:29;3.70;;;3.13;;
35897;SDS011;21997;47.118;15.346;2023-05-10T00:17:55;5.07;;;2.93;;
35897;SDS011;21997;47.118;15.346;2023-05-10T00:20:21;4.07;;;3.30;;
35897;SDS011;21997;47.118;15.346;2023-05-10T00:22:47;3.10;;;2.80;;
35897;SDS011;21997;47.118;15.346;2023-05-10T00:25:12;4.43;;;3.17;;
35897;SDS011;21997;47.118;15.346;2023-05-10T00:27:37;4.37;;;3.50;;
35897;SDS011;21997;47.118;15.346;2023-05-10T00:30:03;5.83;;;2.60;;
35897;SDS011;21997;47.118;15.346;2023-05-10T00:32:28;3.33;;;2.80;;
35897;SDS011;21997;47.118;15.346;2023-05-10T00:34:54;4.17;;;3.10;;
35897;SDS011;21997;47.118;15.346;2023-05-10T00:37:20;3.43;;;3.10;;
35897;SDS011;21997;47.118;15.346;2023-05-10T00:39:45;5.43;;;3.10;;
35897;SDS011;21997;47.118;15.346;2023-05-10T00:42:10;5.23;;;3.70;;
35897;SDS011;21997;47.118;15.346;2023-05-10T00:44:36;3.77;;;3.03;;
35897;SDS011;21997;47.118;15.346;2023-05-10T00:47:01;2.90;;;2.57;;
35897;SDS011;21997;47.118;15.346;2023-05-10T00:49:27;3.50;;;2.83;;
35897;SDS011;21997;47.118;15.346;2023-05-10T00:51:53;4.73;;;3.23;;
35897;SDS011;21997;47.118;15.346;2023-05-10T00:54:19;3.30;;;3.00;;
35897;SDS011;21997;47.118;15.346;2023-05-10T00:56:44;6.67;;;3.83;;
35897;SDS011;21997;47.118;15.346;2023-05-10T00:59:17;4.43;;;3.20;;
35897;SDS011;21997;47.118;15.346;2023-05-10T01:01:46;7.27;;;3.20;;
35897;SDS011;21997;47.118;15.346;2023-05-10T01:04:12;5.80;;;3.37;;
35897;SDS011;21997;47.118;15.346;2023-05-10T01:06:38;3.80;;;3.33;;
35897;SDS011;21997;47.118;15.346;2023-05-10T01:09:05;3.90;;;2.97;;
35897;SDS011;21997;47.118;15.346;2023-05-10T01:11:32;3.53;;;2.60;;
35897;SDS011;21997;47.118;15.346;2023-05-10T01:13:58;4.13;;;3.07;;
35897;SDS011;21997;47.118;15.346;2023-05-10T01:16:24;3.00;;;2.50;;
35897;SDS011;21997;47.118;15.346;2023-05-10T01:18:50;4.60;;;3.30;;
35897;SDS011;21997;47.118;15.346;2023-05-10T01:21:23;3.47;;;2.90;;
35897;SDS011;21997;47.118;15.346;2023-05-10T01:24:09;6.97;;;2.97;;
35897;SDS011;21997;47.118;15.346;2023-05-10T01:35:03;3.53;;;3.20;;
35897;SDS011;21997;47.118;15.346;2023-05-10T01:37:42;3.57;;;2.70;;
35897;SDS011;21997;47.118;15.346;2023-05-10T01:40:17;4.90;;;2.97;;
35897;SDS011;21997;47.118;15.346;2023-05-10T01:42:51;4.03;;;2.93;;
35897;SDS011;21997;47.118;15.346;2023-05-10T01:47:58;4.23;;;3.23;;
35897;SDS011;21997;47.118;15.346;2023-05-10T01:50:30;4.07;;;3.30;;
35897;SDS011;21997;47.118;15.346;2023-05-10T01:52:56;3.63;;;3.10;;
35897;SDS011;21997;47.118;15.346;2023-05-10T01:55:24;4.90;;;3.23;;
35897;SDS011;21997;47.118;15.346;2023-05-10T01:57:53;4.03;;;2.77;;
35897;SDS011;21997;47.118;15.346;2023-05-10T02:00:24;3.70;;;2.87;;
35897;SDS011;21997;47.118;15.346;2023-05-10T02:02:49;5.03;;;3.20;;
35897;SDS011;21997;47.118;15.346;2023-05-10T02:05:16;3.33;;;2.90;;
35897;SDS011;21997;47.118;15.346;2023-05-10T02:07:42;5.80;;;3.20;;
35897;SDS011;21997;47.118;15.346;2023-05-10T02:10:09;3.93;;;3.20;;
35897;SDS011;21997;47.118;15.346;2023-05-10T02:12:35;4.97;;;3.20;;
35897;SDS011;21997;47.118;15.346;2023-05-10T02:15:02;5.90;;;3.00;;
35897;SDS011;21997;47.118;15.346;2023-05-10T02:17:30;4.83;;;3.87;;
35897;SDS011;21997;47.118;15.346;2023-05-10T02:19:57;4.67;;;3.20;;
35897;SDS011;21997;47.118;15.346;2023-05-10T02:22:24;3.37;;;2.70;;
35897;SDS011;21997;47.118;15.346;2023-05-10T02:24:51;5.50;;;3.37;;
35897;SDS011;21997;47.118;15.346;2023-05-10T02:27:17;3.53;;;2.57;;
35897;SDS011;21997;47.118;15.346;2023-05-10T02:29:43;3.67;;;2.93;;
35897;SDS011;21997;47.118;15.346;2023-05-10T02:32:09;3.67;;;3.00;;
35897;SDS011;21997;47.118;15.346;2023-05-10T02:34:35;5.37;;;3.70;;
35897;SDS011;21997;47.118;15.346;2023-05-10T02:37:01;3.33;;;2.87;;
35897;SDS011;21997;47.118;15.346;2023-05-10T02:39:27;7.83;;;3.23;;
35897;SDS011;21997;47.118;15.346;2023-05-10T02:41:53;5.13;;;3.10;;
35897;SDS011;21997;47.118;15.346;2023-05-10T02:44:20;3.73;;;3.10;;
35897;SDS011;21997;47.118;15.346;2023-05-10T02:46:45;4.97;;;2.87;;
35897;SDS011;21997;47.118;15.346;2023-05-10T02:49:11;3.77;;;3.00;;
35897;SDS011;21997;47.118;15.346;2023-05-10T02:51:39;4.17;;;3.07;;
35897;SDS011;21997;47.118;15.346;2023-05-10T02:54:18;3.70;;;3.20;;
35897;SDS011;21997;47.118;15.346;2023-05-10T02:56:47;4.53;;;3.23;;
35897;SDS011;21997;47.118;15.346;2023-05-10T02:59:14;4.57;;;3.60;;
35897;SDS011;21997;47.118;15.346;2023-05-10T03:01:39;7.23;;;3.40;;
35897;SDS011;21997;47.118;15.346;2023-05-10T03:04:05;4.17;;;3.53;;
35897;SDS011;21997;47.118;15.346;2023-05-10T03:06:31;5.17;;;3.27;;
35897;SDS011;21997;47.118;15.346;2023-05-10T03:08:56;6.23;;;3.57;;
35897;SDS011;21997;47.118;15.346;2023-05-10T03:17:18;4.30;;;3.40;;
35897;SDS011;21997;47.118;15.346;2023-05-10T03:19:48;3.70;;;2.90;;
35897;SDS011;21997;47.118;15.346;2023-05-10T03:22:21;3.67;;;3.37;;
35897;SDS011;21997;47.118;15.346;2023-05-10T03:24:50;6.07;;;3.13;;
35897;SDS011;21997;47.118;15.346;2023-05-10T03:27:22;4.63;;;3.73;;
35897;SDS011;21997;47.118;15.346;2023-05-10T03:29:47;3.87;;;3.23;;
35897;SDS011;21997;47.118;15.346;2023-05-10T03:32:14;5.23;;;3.70;;
35897;SDS011;21997;47.118;15.346;2023-05-10T03:34:42;5.63;;;4.33;;
35897;SDS011;21997;47.118;15.346;2023-05-10T03:37:08;5.93;;;3.53;;
35897;SDS011;21997;47.118;15.346;2023-05-10T03:39:34;3.83;;;3.27;;
35897;SDS011;21997;47.118;15.346;2023-05-10T03:41:59;6.70;;;3.77;;
35897;SDS011;21997;47.118;15.346;2023-05-10T03:44:25;4.47;;;3.57;;
35897;SDS011;21997;47.118;15.346;2023-05-10T03:46:50;4.47;;;3.20;;
35897;SDS011;21997;47.118;15.346;2023-05-10T03:49:16;5.03;;;3.80;;
35897;SDS011;21997;47.118;15.346;2023-05-10T03:51:41;3.80;;;3.40;;
35897;SDS011;21997;47.118;15.346;2023-05-10T03:54:06;4.97;;;3.63;;
35897;SDS011;21997;47.118;15.346;2023-05-10T03:56:32;4.97;;;3.77;;
35897;SDS011;21997;47.118;15.346;2023-05-10T03:58:57;4.97;;;3.40;;
35897;SDS011;21997;47.118;15.346;2023-05-10T04:01:23;5.03;;;3.50;;
35897;SDS011;21997;47.118;15.346;2023-05-10T04:03:48;5.00;;;3.60;;
35897;SDS011;21997;47.118;15.346;2023-05-10T04:06:14;5.57;;;3.90;;
35897;SDS011;21997;47.118;15.346;2023-05-10T04:08:39;4.57;;;3.57;;
35897;SDS011;21997;47.118;15.346;2023-05-10T04:11:05;4.17;;;3.73;;
35897;SDS011;21997;47.118;15.346;2023-05-10T04:13:34;6.17;;;4.07;;
35897;SDS011;21997;47.118;15.346;2023-05-10T04:16:00;4.27;;;3.17;;
35897;SDS011;21997;47.118;15.346;2023-05-10T04:18:25;4.23;;;3.83;;
35897;SDS011;21997;47.118;15.346;2023-05-10T04:20:51;4.77;;;3.90;;
35897;SDS011;21997;47.118;15.346;2023-05-10T04:23:16;5.37;;;3.67;;
35897;SDS011;21997;47.118;15.346;2023-05-10T04:25:41;5.97;;;3.80;;
35897;SDS011;21997;47.118;15.346;2023-05-10T04:28:07;6.20;;;4.57;;
35897;SDS011;21997;47.118;15.346;2023-05-10T04:30:32;6.57;;;3.83;;
35897;SDS011;21997;47.118;15.346;2023-05-10T04:32:58;9.63;;;4.30;;
35897;SDS011;21997;47.118;15.346;2023-05-10T04:35:23;5.10;;;4.60;;
35897;SDS011;21997;47.118;15.346;2023-05-10T04:37:49;6.00;;;4.67;;
35897;SDS011;21997;47.118;15.346;2023-05-10T04:40:14;5.20;;;4.13;;
35897;SDS011;21997;47.118;15.346;2023-05-10T04:42:40;6.57;;;4.33;;
35897;SDS011;21997;47.118;15.346;2023-05-10T04:45:08;6.43;;;4.67;;
35897;SDS011;21997;47.118;15.346;2023-05-10T04:47:34;4.90;;;4.37;;
35897;SDS011;21997;47.118;15.346;2023-05-10T04:50:00;5.03;;;4.40;;
35897;SDS011;21997;47.118;15.346;2023-05-10T04:52:25;6.73;;;4.10;;
35897;SDS011;21997;47.118;15.346;2023-05-10T04:54:51;4.67;;;3.80;;
35897;SDS011;21997;47.118;15.346;2023-05-10T04:57:16;4.77;;;3.97;;
35897;SDS011;21997;47.118;15.346;2023-05-10T04:59:42;5.37;;;4.40;;
35897;SDS011;21997;47.118;15.346;2023-05-10T05:02:08;6.77;;;4.57;;
35897;SDS011;21997;47.118;15.346;2023-05-10T05:04:33;4.50;;;4.10;;
35897;SDS011;21997;47.118;15.346;2023-05-10T05:06:58;6.43;;;4.40;;
35897;SDS011;21997;47.118;15.346;2023-05-10T05:09:25;4.50;;;3.90;;
35897;SDS011;21997;47.118;15.346;2023-05-10T05:11:51;6.43;;;4.03;;
35897;SDS011;21997;47.118;15.346;2023-05-10T05:14:19;5.80;;;4.27;;
35897;SDS011;21997;47.118;15.346;2023-05-10T05:16:46;4.87;;;3.77;;
35897;SDS011;21997;47.118;15.346;2023-05-10T05:19:11;11.80;;;4.50;;
35897;SDS011;21997;47.118;15.346;2023-05-10T05:21:37;5.20;;;3.60;;
35897;SDS011;21997;47.118;15.346;2023-05-10T05:24:02;5.17;;;3.43;;
35897;SDS011;21997;47.118;15.346;2023-05-10T05:26:28;7.67;;;3.60;;
35897;SDS011;21997;47.118;15.346;2023-05-10T05:28:53;4.90;;;3.47;;
35897;SDS011;21997;47.118;15.346;2023-05-10T05:31:19;5.50;;;3.70;;
35897;SDS011;21997;47.118;15.346;2023-05-10T05:33:45;4.70;;;3.80;;
35897;SDS011;21997;47.118;15.346;2023-05-10T05:36:10;3.67;;;3.37;;
35897;SDS011;21997;47.118;15.346;2023-05-10T05:38:36;5.77;;;3.20;;
35897;SDS011;21997;47.118;15.346;2023-05-10T05:41:01;5.27;;;3.50;;
35897;SDS011;21997;47.118;15.346;2023-05-10T05:43:27;6.37;;;4.90;;
35897;SDS011;21997;47.118;15.346;2023-05-10T05:45:53;5.07;;;3.80;;
35897;SDS011;21997;47.118;15.346;2023-05-10T05:48:18;6.43;;;3.60;;
35897;SDS011;21997;47.118;15.346;2023-05-10T05:50:44;6.17;;;4.20;;
35897;SDS011;21997;47.118;15.346;2023-05-10T05:53:10;4.53;;;3.30;;
35897;SDS011;21997;47.118;15.346;2023-05-10T05:55:36;5.47;;;3.20;;
35897;SDS011;21997;47.118;15.346;2023-05-10T05:58:02;3.53;;;3.23;;
35897;SDS011;21997;47.118;15.346;2023-05-10T06:00:28;6.17;;;3.53;;
35897;SDS011;21997;47.118;15.346;2023-05-10T06:02:53;5.90;;;3.90;;
35897;SDS011;21997;47.118;15.346;2023-05-10T06:05:18;8.03;;;3.87;;
35897;SDS011;21997;47.118;15.346;2023-05-10T06:07:45;9.87;;;4.73;;
35897;SDS011;21997;47.118;15.346;2023-05-10T06:10:10;7.10;;;3.60;;
35897;SDS011;21997;47.118;15.346;2023-05-10T06:12:36;5.10;;;3.60;;
35897;SDS011;21997;47.118;15.346;2023-05-10T06:15:02;3.47;;;3.00;;
35897;SDS011;21997;47.118;15.346;2023-05-10T06:17:27;5.50;;;3.87;;
35897;SDS011;21997;47.118;15.346;2023-05-10T06:19:53;5.67;;;3.43;;
35897;SDS011;21997;47.118;15.346;2023-05-10T06:22:19;3.80;;;3.43;;
35897;SDS011;21997;47.118;15.346;2023-05-10T06:24:44;4.73;;;3.30;;
35897;SDS011;21997;47.118;15.346;2023-05-10T06:27:09;6.70;;;4.00;;
35897;SDS011;21997;47.118;15.346;2023-05-10T06:29:35;6.47;;;3.90;;
35897;SDS011;21997;47.118;15.346;2023-05-10T06:32:00;4.10;;;3.60;;
35897;SDS011;21997;47.118;15.346;2023-05-10T06:34:26;5.57;;;3.90;;
35897;SDS011;21997;47.118;15.346;2023-05-10T06:36:51;5.43;;;3.83;;
35897;SDS011;21997;47.118;15.346;2023-05-10T06:39:17;6.43;;;3.13;;
35897;SDS011;21997;47.118;15.346;2023-05-10T06:41:42;3.87;;;3.47;;
35897;SDS011;21997;47.118;15.346;2023-05-10T06:44:07;8.20;;;3.27;;
35897;SDS011;21997;47.118;15.346;2023-05-10T06:46:33;5.60;;;3.67;;
35897;SDS011;21997;47.118;15.346;2023-05-10T06:48:59;7.57;;;3.17;;
35897;SDS011;21997;47.118;15.346;2023-05-10T06:51:24;3.67;;;3.17;;
35897;SDS011;21997;47.118;15.346;2023-05-10T06:53:49;7.40;;;3.73;;
35897;SDS011;21997;47.118;15.346;2023-05-10T06:56:15;5.53;;;3.30;;
35897;SDS011;21997;47.118;15.346;2023-05-10T06:58:40;3.30;;;3.00;;
35897;SDS011;21997;47.118;15.346;2023-05-10T07:01:06;3.37;;;3.07;;
35897;SDS011;21997;47.118;15.346;2023-05-10T07:03:31;4.30;;;3.50;;
35897;SDS011;21997;47.118;15.346;2023-05-10T07:06:03;6.37;;;3.97;;
35897;SDS011;21997;47.118;15.346;2023-05-10T07:08:31;5.20;;;3.33;;
35897;SDS011;21997;47.118;15.346;2023-05-10T07:11:03;7.40;;;4.10;;
35897;SDS011;21997;47.118;15.346;2023-05-10T07:13:30;3.87;;;3.23;;
35897;SDS011;21997;47.118;15.346;2023-05-10T07:15:56;4.50;;;3.57;;
35897;SDS011;21997;47.118;15.346;2023-05-10T07:18:23;4.10;;;3.20;;
35897;SDS011;21997;47.118;15.346;2023-05-10T07:20:48;3.30;;;3.00;;
35897;SDS011;21997;47.118;15.346;2023-05-10T07:23:14;4.13;;;3.50;;
35897;SDS011;21997;47.118;15.346;2023-05-10T07:25:39;4.43;;;2.97;;
35897;SDS011;21997;47.118;15.346;2023-05-10T07:28:05;3.63;;;3.30;;
35897;SDS011;21997;47.118;15.346;2023-05-10T07:30:30;4.83;;;3.70;;
35897;SDS011;21997;47.118;15.346;2023-05-10T07:32:56;3.53;;;3.23;;
35897;SDS011;21997;47.118;15.346;2023-05-10T07:35:21;3.40;;;3.10;;
35897;SDS011;21997;47.118;15.346;2023-05-10T07:37:47;6.47;;;3.07;;
35897;SDS011;21997;47.118;15.346;2023-05-10T07:40:12;3.80;;;3.40;;
35897;SDS011;21997;47.118;15.346;2023-05-10T07:42:37;4.37;;;3.40;;
35897;SDS011;21997;47.118;15.346;2023-05-10T07:45:03;4.30;;;3.27;;
35897;SDS011;21997;47.118;15.346;2023-05-10T07:47:29;4.47;;;3.37;;
35897;SDS011;21997;47.118;15.346;2023-05-10T07:49:54;4.47;;;3.37;;
35897;SDS011;21997;47.118;15.346;2023-05-10T07:52:22;5.00;;;3.00;;
35897;SDS011;21997;47.118;15.346;2023-05-10T07:54:47;2.77;;;2.57;;
35897;SDS011;21997;47.118;15.346;2023-05-10T07:57:13;3.80;;;2.70;;
35897;SDS011;21997;47.118;15.346;2023-05-10T07:59:40;2.93;;;2.70;;
35897;SDS011;21997;47.118;15.346;2023-05-10T08:02:06;3.97;;;3.57;;
35897;SDS011;21997;47.118;15.346;2023-05-10T08:04:31;3.80;;;2.63;;
35897;SDS011;21997;47.118;15.346;2023-05-10T08:06:56;3.13;;;2.87;;
35897;SDS011;21997;47.118;15.346;2023-05-10T08:09:22;3.77;;;3.10;;
35897;SDS011;21997;47.118;15.346;2023-05-10T08:11:48;3.90;;;3.13;;
35897;SDS011;21997;47.118;15.346;2023-05-10T08:14:14;2.87;;;2.40;;
35897;SDS011;21997;47.118;15.346;2023-05-10T08:16:40;3.47;;;3.07;;
35897;SDS011;21997;47.118;15.346;2023-05-10T08:19:05;5.83;;;3.50;;
35897;SDS011;21997;47.118;15.346;2023-05-10T08:21:30;3.77;;;2.80;;
35897;SDS011;21997;47.118;15.346;2023-05-10T08:23:56;2.90;;;2.50;;
35897;SDS011;21997;47.118;15.346;2023-05-10T08:26:21;4.57;;;2.80;;
35897;SDS011;21997;47.118;15.346;2023-05-10T08:28:47;3.60;;;3.23;;
35897;SDS011;21997;47.118;15.346;2023-05-10T08:31:12;4.17;;;2.77;;
35897;SDS011;21997;47.118;15.346;2023-05-10T08:33:37;3.27;;;2.70;;
35897;SDS011;21997;47.118;15.346;2023-05-10T08:36:03;3.50;;;3.10;;
35897;SDS011;21997;47.118;15.346;2023-05-10T08:38:28;3.13;;;2.60;;
35897;SDS011;21997;47.118;15.346;2023-05-10T08:40:54;3.77;;;2.70;;
35897;SDS011;21997;47.118;15.346;2023-05-10T08:43:25;4.03;;;2.50;;
35897;SDS011;21997;47.118;15.346;2023-05-10T08:45:53;3.63;;;2.90;;
35897;SDS011;21997;47.118;15.346;2023-05-10T08:48:20;4.37;;;2.40;;
35897;SDS011;21997;47.118;15.346;2023-05-10T08:50:48;2.30;;;2.10;;
35897;SDS011;21997;47.118;15.346;2023-05-10T08:53:14;4.80;;;2.87;;
35897;SDS011;21997;47.118;15.346;2023-05-10T08:55:41;2.83;;;2.10;;
35897;SDS011;21997;47.118;15.346;2023-05-10T08:58:08;2.77;;;2.40;;
35897;SDS011;21997;47.118;15.346;2023-05-10T09:00:34;3.67;;;2.60;;
35897;SDS011;21997;47.118;15.346;2023-05-10T09:03:00;3.43;;;2.20;;
35897;SDS011;21997;47.118;15.346;2023-05-10T09:05:26;3.23;;;2.63;;
35897;SDS011;21997;47.118;15.346;2023-05-10T09:07:52;2.93;;;2.63;;
35897;SDS011;21997;47.118;15.346;2023-05-10T09:10:18;3.47;;;2.70;;
35897;SDS011;21997;47.118;15.346;2023-05-10T09:12:45;2.73;;;2.33;;
35897;SDS011;21997;47.118;15.346;2023-05-10T09:15:11;3.50;;;2.67;;
35897;SDS011;21997;47.118;15.346;2023-05-10T09:17:39;4.27;;;2.60;;
35897;SDS011;21997;47.118;15.346;2023-05-10T09:20:05;3.90;;;2.60;;
35897;SDS011;21997;47.118;15.346;2023-05-10T09:22:32;5.07;;;2.90;;
35897;SDS011;21997;47.118;15.346;2023-05-10T09:25:10;2.83;;;2.30;;
35897;SDS011;21997;47.118;15.346;2023-05-10T09:27:38;3.07;;;2.77;;
35897;SDS011;21997;47.118;15.346;2023-05-10T09:30:05;2.70;;;2.00;;
35897;SDS011;21997;47.118;15.346;2023-05-10T09:32:41;2.30;;;2.10;;
35897;SDS011;21997;47.118;15.346;2023-05-10T09:35:12;2.73;;;2.30;;
35897;SDS011;21997;47.118;15.346;2023-05-10T09:37:42;3.30;;;2.60;;
35897;SDS011;21997;47.118;15.346;2023-05-10T09:40:12;4.93;;;2.10;;
35897;SDS011;21997;47.118;15.346;2023-05-10T09:42:42;2.97;;;1.90;;
35897;SDS011;21997;47.118;15.346;2023-05-10T09:45:08;4.10;;;2.13;;
35897;SDS011;21997;47.118;15.346;2023-05-10T09:47:34;4.10;;;2.30;;
35897;SDS011;21997;47.118;15.346;2023-05-10T09:50:00;4.50;;;2.47;;
35897;SDS011;21997;47.118;15.346;2023-05-10T09:52:28;3.05;;;2.75;;
35897;SDS011;21997;47.118;15.346;2023-05-10T09:55:11;3.38;;;2.35;;
35897;SDS011;21997;47.118;15.346;2023-05-10T09:57:37;3.22;;;1.98;;
35897;SDS011;21997;47.118;15.346;2023-05-10T10:00:02;5.55;;;2.63;;
35897;SDS011;21997;47.118;15.346;2023-05-10T10:02:30;5.28;;;2.42;;
35897;SDS011;21997;47.118;15.346;2023-05-10T10:04:56;2.75;;;2.55;;
35897;SDS011;21997;47.118;15.346;2023-05-10T10:07:22;3.28;;;2.70;;
35897;SDS011;21997;47.118;15.346;2023-05-10T10:09:48;3.65;;;2.15;;
35897;SDS011;21997;47.118;15.346;2023-05-10T10:12:14;3.45;;;2.47;;
35897;SDS011;21997;47.118;15.346;2023-05-10T10:14:40;4.45;;;2.58;;
35897;SDS011;21997;47.118;15.346;2023-05-10T10:17:05;3.33;;;2.53;;
35897;SDS011;21997;47.118;15.346;2023-05-10T10:19:32;4.75;;;2.83;;
35897;SDS011;21997;47.118;15.346;2023-05-10T10:21:58;5.13;;;2.50;;
35897;SDS011;21997;47.118;15.346;2023-05-10T10:24:25;3.75;;;2.35;;
35897;SDS011;21997;47.118;15.346;2023-05-10T10:26:50;2.30;;;2.00;;
35897;SDS011;21997;47.118;15.346;2023-05-10T10:29:32;3.92;;;2.22;;
35897;SDS011;21997;47.118;15.346;2023-05-10T10:32:03;3.35;;;2.40;;
35897;SDS011;21997;47.118;15.346;2023-05-10T10:34:54;3.08;;;2.78;;
35897;SDS011;21997;47.118;15.346;2023-05-10T10:37:20;3.03;;;2.20;;
35897;SDS011;21997;47.118;15.346;2023-05-10T10:39:46;4.40;;;3.05;;
35897;SDS011;21997;47.118;15.346;2023-05-10T10:42:13;2.88;;;2.50;;
35897;SDS011;21997;47.118;15.346;2023-05-10T10:44:38;3.05;;;2.53;;
35897;SDS011;21997;47.118;15.346;2023-05-10T10:57:31;3.33;;;2.67;;
35897;SDS011;21997;47.118;15.346;2023-05-10T11:00:24;3.03;;;2.13;;
35897;SDS011;21997;47.118;15.346;2023-05-10T11:02:56;3.00;;;2.75;;
35897;SDS011;21997;47.118;15.346;2023-05-10T11:07:58;4.90;;;3.10;;
35897;SDS011;21997;47.118;15.346;2023-05-10T11:10:25;7.00;;;3.30;;
35897;SDS011;21997;47.118;15.346;2023-05-10T11:12:55;3.40;;;2.92;;
35897;SDS011;21997;47.118;15.346;2023-05-10T11:15:38;2.88;;;2.47;;
35897;SDS011;21997;47.118;15.346;2023-05-10T11:18:18;2.75;;;2.50;;
35897;SDS011;21997;47.118;15.346;2023-05-10T11:20:44;4.85;;;2.28;;
35897;SDS011;21997;47.118;15.346;2023-05-10T11:23:15;4.88;;;2.75;;
35897;SDS011;21997;47.118;15.346;2023-05-10T11:25:42;3.35;;;2.10;;
35897;SDS011;21997;47.118;15.346;2023-05-10T11:28:12;5.63;;;3.22;;
35897;SDS011;21997;47.118;15.346;2023-05-10T11:30:38;5.32;;;2.97;;
35897;SDS011;21997;47.118;15.346;2023-05-10T11:33:05;3.47;;;3.08;;
35897;SDS011;21997;47.118;15.346;2023-05-10T11:35:31;2.63;;;2.42;;
35897;SDS011;21997;47.118;15.346;2023-05-10T11:38:02;3.15;;;2.25;;
35897;SDS011;21997;47.118;15.346;2023-05-10T11:40:27;2.67;;;2.30;;
35897;SDS011;21997;47.118;15.346;2023-05-10T11:42:55;2.83;;;2.50;;
35897;SDS011;21997;47.118;15.346;2023-05-10T11:45:23;3.15;;;2.75;;
35897;SDS011;21997;47.118;15.346;2023-05-10T11:47:49;2.45;;;2.20;;
35897;SDS011;21997;47.118;15.346;2023-05-10T11:50:14;2.63;;;2.42;;
35897;SDS011;21997;47.118;15.346;2023-05-10T11:52:40;4.28;;;2.80;;
35897;SDS011;21997;47.118;15.346;2023-05-10T11:55:05;6.25;;;3.10;;
35897;SDS011;21997;47.118;15.346;2023-05-10T11:57:31;3.97;;;3.42;;
35897;SDS011;21997;47.118;15.346;2023-05-10T11:59:57;4.75;;;3.50;;
35897;SDS011;21997;47.118;15.346;2023-05-10T12:02:22;3.13;;;2.85;;
35897;SDS011;21997;47.118;15.346;2023-05-10T12:04:48;4.15;;;2.40;;
35897;SDS011;21997;47.118;15.346;2023-05-10T12:07:14;3.67;;;3.10;;
35897;SDS011;21997;47.118;15.346;2023-05-10T12:09:43;3.92;;;3.30;;
35897;SDS011;21997;47.118;15.346;2023-05-10T12:12:09;3.27;;;2.97;;
35897;SDS011;21997;47.118;15.346;2023-05-10T12:14:35;5.20;;;3.23;;
35897;SDS011;21997;47.118;15.346;2023-05-10T12:17:01;4.87;;;3.97;;
35897;SDS011;21997;47.118;15.346;2023-05-10T12:19:26;4.80;;;3.27;;
35897;SDS011;21997;47.118;15.346;2023-05-10T12:21:52;4.17;;;3.77;;
35897;SDS011;21997;47.118;15.346;2023-05-10T12:24:17;5.90;;;3.27;;
35897;SDS011;21997;47.118;15.346;2023-05-10T12:26:45;4.93;;;3.70;;
35897;SDS011;21997;47.118;15.346;2023-05-10T12:29:19;7.77;;;3.60;;
35897;SDS011;21997;47.118;15.346;2023-05-10T12:34:26;4.67;;;3.90;;
35897;SDS011;21997;47.118;15.346;2023-05-10T12:36:52;3.87;;;3.53;;
35897;SDS011;21997;47.118;15.346;2023-05-10T12:39:18;5.13;;;3.83;;
35897;SDS011;21997;47.118;15.346;2023-05-10T12:41:43;4.20;;;3.33;;
35897;SDS011;21997;47.118;15.346;2023-05-10T12:44:09;3.90;;;3.07;;
35897;SDS011;21997;47.118;15.346;2023-05-10T12:46:34;4.00;;;3.43;;
35897;SDS011;21997;47.118;15.346;2023-05-10T12:48:59;5.53;;;3.50;;
35897;SDS011;21997;47.118;15.346;2023-05-10T12:51:25;4.30;;;3.37;;
35897;SDS011;21997;47.118;15.346;2023-05-10T12:53:50;5.17;;;3.40;;
35897;SDS011;21997;47.118;15.346;2023-05-10T12:56:15;3.83;;;3.30;;
35897;SDS011;21997;47.118;15.346;2023-05-10T12:58:41;4.37;;;3.97;;
35897;SDS011;21997;47.118;15.346;2023-05-10T13:01:06;3.90;;;3.47;;
35897;SDS011;21997;47.118;15.346;2023-05-10T13:03:32;6.17;;;4.40;;
35897;SDS011;21997;47.118;15.346;2023-05-10T13:05:57;5.97;;;3.40;;
35897;SDS011;21997;47.118;15.346;2023-05-10T13:08:22;4.43;;;3.40;;
35897;SDS011;21997;47.118;15.346;2023-05-10T13:10:48;3.70;;;2.90;;
35897;SDS011;21997;47.118;15.346;2023-05-10T13:13:13;3.47;;;3.17;;
35897;SDS011;21997;47.118;15.346;2023-05-10T13:15:39;4.20;;;3.80;;
35897;SDS011;21997;47.118;15.346;2023-05-10T13:18:04;3.70;;;3.40;;
35897;SDS011;21997;47.118;15.346;2023-05-10T13:20:30;5.67;;;3.73;;
35897;SDS011;21997;47.118;15.346;2023-05-10T13:22:55;3.60;;;3.23;;
35897;SDS011;21997;47.118;15.346;2023-05-10T13:25:20;4.10;;;3.10;;
35897;SDS011;21997;47.118;15.346;2023-05-10T13:27:46;5.47;;;3.30;;
35897;SDS011;21997;47.118;15.346;2023-05-10T13:30:11;6.67;;;3.50;;
35897;SDS011;21997;47.118;15.346;2023-05-10T13:32:37;3.47;;;3.17;;
35897;SDS011;21997;47.118;15.346;2023-05-10T13:35:06;5.27;;;3.57;;
35897;SDS011;21997;47.118;15.346;2023-05-10T13:37:33;4.73;;;3.07;;
35897;SDS011;21997;47.118;15.346;2023-05-10T13:40:02;3.90;;;3.23;;
35897;SDS011;21997;47.118;15.346;2023-05-10T13:42:29;3.23;;;2.93;;
35897;SDS011;21997;47.118;15.346;2023-05-10T13:44:54;3.27;;;2.97;;
35897;SDS011;21997;47.118;15.346;2023-05-10T13:47:19;3.80;;;3.40;;
35897;SDS011;21997;47.118;15.346;2023-05-10T13:49:46;6.67;;;4.03;;
35897;SDS011;21997;47.118;15.346;2023-05-10T13:52:12;4.00;;;3.60;;
35897;SDS011;21997;47.118;15.346;2023-05-10T13:54:38;3.20;;;2.90;;
35897;SDS011;21997;47.118;15.346;2023-05-10T13:57:04;4.53;;;3.00;;
35897;SDS011;21997;47.118;15.346;2023-05-10T13:59:30;5.13;;;3.30;;
35897;SDS011;21997;47.118;15.346;2023-05-10T14:02:01;3.47;;;3.13;;
35897;SDS011;21997;47.118;15.346;2023-05-10T14:04:29;3.43;;;3.10;;
35897;SDS011;21997;47.118;15.346;2023-05-10T14:06:55;3.57;;;3.20;;
35897;SDS011;21997;47.118;15.346;2023-05-10T14:09:20;5.03;;;3.33;;
35897;SDS011;21997;47.118;15.346;2023-05-10T14:11:46;4.77;;;3.37;;
35897;SDS011;21997;47.118;15.346;2023-05-10T14:14:11;3.60;;;3.30;;
35897;SDS011;21997;47.118;15.346;2023-05-10T14:16:38;3.93;;;3.37;;
35897;SDS011;21997;47.118;15.346;2023-05-10T14:19:06;4.63;;;3.47;;
35897;SDS011;21997;47.118;15.346;2023-05-10T14:21:32;4.33;;;3.33;;
35897;SDS011;21997;47.118;15.346;2023-05-10T14:23:58;4.80;;;3.57;;
35897;SDS011;21997;47.118;15.346;2023-05-10T14:26:23;4.93;;;4.40;;
35897;SDS011;21997;47.118;15.346;2023-05-10T14:28:48;3.90;;;3.57;;
35897;SDS011;21997;47.118;15.346;2023-05-10T14:31:14;4.50;;;3.63;;
35897;SDS011;21997;47.118;15.346;2023-05-10T14:33:41;4.60;;;3.67;;
35897;SDS011;21997;47.118;15.346;2023-05-10T14:36:07;4.37;;;3.67;;
35897;SDS011;21997;47.118;15.346;2023-05-10T14:38:33;3.67;;;3.37;;
35897;SDS011;21997;47.118;15.346;2023-05-10T14:40:59;3.57;;;3.00;;
35897;SDS011;21997;47.118;15.346;2023-05-10T14:43:24;4.00;;;3.60;;
35897;SDS011;21997;47.118;15.346;2023-05-10T14:45:49;4.00;;;3.70;;
35897;SDS011;21997;47.118;15.346;2023-05-10T14:48:15;5.13;;;3.33;;
35897;SDS011;21997;47.118;15.346;2023-05-10T14:50:42;3.60;;;2.87;;
35897;SDS011;21997;47.118;15.346;2023-05-10T14:53:08;3.83;;;3.50;;
35897;SDS011;21997;47.118;15.346;2023-05-10T14:55:33;4.10;;;3.70;;
35897;SDS011;21997;47.118;15.346;2023-05-10T14:58:00;3.40;;;3.10;;
35897;SDS011;21997;47.118;15.346;2023-05-10T15:00:25;4.00;;;3.40;;
35897;SDS011;21997;47.118;15.346;2023-05-10T15:02:50;5.30;;;3.23;;